Time;durP1;ratioP1;P1;durP2;ratioP2;P2;SDS_P1;SDS_P2;PMS_P1;PMS_P2;Temp;Humidity;BMP_temperature;BMP_pressure;BME280_temperature;BME280_humidity;BME280_pressure;Samples;Min_cycle;Max_cycle;Signal;HPM_P1;HPM_P2
2022/03/30 00:02:52;;;;;;;;;;;;;;;2.32;69.05;99249.40;2114811;83;20219;-80
2022/03/30 00:05:53;;;;;;;;;;;;;;;2.29;69.24;99251.47;2105662;83;20131;-81
2022/03/30 00:08:54;;;;;;;;;;;;;;;2.24;69.13;99254.48;2108312;83;20126;-81
2022/03/30 00:11:56;;;;;;;;;;;;;;;2.18;69.13;99246.68;2109415;83;20158;-79
2022/03/30 00:14:57;;;;;;;;;;;;;;;2.14;69.21;99247.92;2110865;83;20142;-81
2022/03/30 00:17:58;;;;;;;;;;;;;;;2.11;69.37;99252.13;2112713;83;20191;-80
2022/03/30 00:20:59;;;;;;;;;;;;;;;2.02;69.31;99249.80;2110266;83;20126;-80
2022/03/30 00:24:00;;;;;;;;;;;;;;;1.95;69.41;99251.80;2107484;83;20276;-80
2022/03/30 00:27:02;;;;;;;;;;;;;;;1.93;69.32;99255.02;2104285;83;20717;-81
2022/03/30 00:30:05;;;;;;;;;;;;;;;1.78;69.43;99265.84;2110169;83;20464;-82
2022/03/30 00:33:06;;;;;;;;;;;;;;;1.32;68.87;99262.36;2116032;83;20141;-80
2022/03/30 00:36:07;;;;;;;;;;;;;;;1.08;69.41;99262.63;2106071;83;20950;-80
2022/03/30 00:39:08;;;;;;;;;;;;;;;1.07;70.22;99251.81;2108318;83;20126;-82
2022/03/30 00:42:17;;;;;;;;;;;;;;;1.10;69.65;99251.10;2114877;83;20550;-81
2022/03/30 00:45:23;;;;;;;;;;;;;;;1.09;69.62;99255.13;2111611;83;20160;-81
2022/03/30 00:48:24;;;;;;;;;;;;;;;1.14;69.97;99248.23;2113755;83;20160;-80
2022/03/30 00:51:25;;;;;;;;;;;;;;;1.18;69.92;99250.44;2110042;83;20134;-81
2022/03/30 00:54:25;;;;;;;;;;;;;;;1.19;69.62;99256.52;2112558;83;20236;-78
2022/03/30 00:57:28;;;;;;;;;;;;;;;1.21;69.51;99250.66;2108129;83;20172;-81
2022/03/30 01:00:29;;;;;;;;;;;;;;;1.18;69.61;99241.29;2108188;83;20188;-78
2022/03/30 01:03:30;;;;;;;;;;;;;;;1.17;69.71;99241.44;2109507;83;20174;-80
2022/03/30 01:06:31;;;;;;;;;;;;;;;1.15;69.81;99242.86;2122953;82;20194;-80
2022/03/30 01:09:32;;;;;;;;;;;;;;;1.12;69.73;99241.33;2129074;83;20162;-81
2022/03/30 01:12:38;;;;;;;;;;;;;;;1.10;69.94;99232.81;2122756;83;20237;-82
2022/03/30 01:15:39;;;;;;;;;;;;;;;1.08;70.10;99229.48;2128395;82;20193;-80
2022/03/30 01:18:40;;;;;;;;;;;;;;;1.05;69.89;99231.53;2122418;83;20149;-81
2022/03/30 01:21:47;;;;;;;;;;;;;;;1.03;70.15;99226.42;2130019;83;20131;-81
2022/03/30 01:24:46;;;;;;;;;;;;;;;1.05;70.28;99223.22;2118835;83;20132;-80
2022/03/30 01:27:47;;;;;;;;;;;;;;;1.08;70.30;99222.95;2123097;83;20159;-81
2022/03/30 01:34:07;;;;;;;;;;;;;;;0.96;69.93;99209.62;2124205;83;20141;-82
2022/03/30 01:37:09;;;;;;;;;;;;;;;0.92;69.86;99213.91;2125387;82;20171;-81
2022/03/30 01:40:11;;;;;;;;;;;;;;;0.91;70.05;99210.47;2125444;83;20157;-79
2022/03/30 01:43:12;;;;;;;;;;;;;;;0.91;70.10;99207.86;2123085;83;20101;-82
2022/03/30 01:46:13;;;;;;;;;;;;;;;0.84;70.05;99207.52;2127150;83;20152;-81
2022/03/30 01:49:14;;;;;;;;;;;;;;;0.79;70.42;99210.16;2123417;83;20130;-81
2022/03/30 01:52:16;;;;;;;;;;;;;;;0.74;70.61;99204.03;2125973;83;20138;-82
2022/03/30 01:55:18;;;;;;;;;;;;;;;0.66;70.71;99194.70;2124007;83;20253;-82
2022/03/30 01:58:19;;;;;;;;;;;;;;;0.52;70.76;99202.34;2128496;83;20142;-79
2022/03/30 02:01:20;;;;;;;;;;;;;;;0.43;70.70;99197.41;2125664;82;20127;-81
2022/03/30 02:04:24;;;;;;;;;;;;;;;0.43;70.71;99197.41;2120482;83;20155;-80
2022/03/30 02:07:25;;;;;;;;;;;;;;;0.35;70.66;99199.80;2110493;83;20123;-83
2022/03/30 02:10:28;;;;;;;;;;;;;;;0.31;70.58;99197.10;2113485;83;20158;-81
2022/03/30 02:13:28;;;;;;;;;;;;;;;0.25;70.75;99193.66;2109229;83;20145;-80
2022/03/30 02:16:30;;;;;;;;;;;;;;;0.24;70.56;99189.88;2110407;83;20159;-82
2022/03/30 02:19:30;;;;;;;;;;;;;;;0.24;70.34;99184.66;2113000;83;20214;-81
2022/03/30 02:22:31;;;;;;;;;;;;;;;0.26;70.30;99185.37;2113498;83;20431;-79
2022/03/30 02:25:34;;;;;;;;;;;;;;;0.20;70.55;99188.00;2110147;83;20153;-80
2022/03/30 02:28:35;;;;;;;;;;;;;;;0.12;70.64;99186.48;2105301;83;20209;-81
2022/03/30 02:31:36;;;;;;;;;;;;;;;0.06;70.16;99184.34;2109120;83;20156;-80
2022/03/30 02:34:36;;;;;;;;;;;;;;;0.03;70.48;99183.28;2109993;83;20523;-80
2022/03/30 02:37:37;;;;;;;;;;;;;;;-0.02;70.46;99179.28;2112353;83;20129;-81
2022/03/30 02:40:38;;;;;;;;;;;;;;;-0.05;70.49;99187.34;2111068;83;20516;-81
2022/03/30 02:43:39;;;;;;;;;;;;;;;-0.21;70.46;99178.25;2107448;83;20151;-82
2022/03/30 02:46:41;;;;;;;;;;;;;;;-0.42;70.78;99176.39;2109421;83;20203;-80
2022/03/30 02:49:42;;;;;;;;;;;;;;;-0.39;71.14;99173.54;2109879;83;20164;-81
2022/03/30 02:52:43;;;;;;;;;;;;;;;-0.38;70.91;99179.58;2108752;83;20200;-83
2022/03/30 02:55:44;;;;;;;;;;;;;;;-0.48;71.16;99183.36;2108171;83;21408;-82
2022/03/30 02:58:45;;;;;;;;;;;;;;;-0.46;71.28;99173.17;2115229;83;20160;-83
2022/03/30 03:01:47;;;;;;;;;;;;;;;-0.47;71.46;99178.04;2110417;83;20527;-82
2022/03/30 03:04:48;;;;;;;;;;;;;;;-0.52;71.33;99173.66;2110672;83;20150;-79
2022/03/30 03:07:49;;;;;;;;;;;;;;;-0.52;71.21;99173.66;2113398;83;20475;-81
2022/03/30 03:10:50;;;;;;;;;;;;;;;-0.53;71.54;99177.22;2109508;83;20138;-82
2022/03/30 03:13:52;;;;;;;;;;;;;;;-0.54;71.08;99175.54;2108547;83;20143;-82
2022/03/30 03:16:53;;;;;;;;;;;;;;;-0.44;71.21;99180.06;2107902;83;20118;-81
2022/03/30 03:19:53;;;;;;;;;;;;;;;-0.42;71.13;99180.75;2107069;83;20143;-81
2022/03/30 03:22:55;;;;;;;;;;;;;;;-0.47;70.67;99179.34;2112965;83;20187;-80
2022/03/30 03:25:56;;;;;;;;;;;;;;;-0.50;70.54;99171.77;2111969;83;20169;-82
2022/03/30 03:28:57;;;;;;;;;;;;;;;-0.56;70.39;99162.30;2111423;83;20163;-82
2022/03/30 03:31:58;;;;;;;;;;;;;;;-0.59;70.78;99172.94;2112367;83;20473;-79
2022/03/30 03:34:59;;;;;;;;;;;;;;;-0.60;71.05;99160.87;2110500;83;20142;-82
2022/03/30 03:38:00;;;;;;;;;;;;;;;-0.61;71.18;99160.52;2114213;83;20127;-80
2022/03/30 03:41:01;;;;;;;;;;;;;;;-0.61;71.19;99154.83;2111021;83;20187;-81
2022/03/30 03:44:03;;;;;;;;;;;;;;;-0.63;70.67;99158.50;2110037;83;20443;-79
2022/03/30 03:47:07;;;;;;;;;;;;;;;-0.69;70.48;99160.63;2111128;83;20592;-80
2022/03/30 03:50:09;;;;;;;;;;;;;;;-0.74;70.90;99161.93;2108099;83;20291;-80
2022/03/30 03:53:10;;;;;;;;;;;;;;;-0.75;71.05;99155.08;2112098;83;20471;-80
2022/03/30 03:56:11;;;;;;;;;;;;;;;-0.80;71.30;99155.89;2110322;83;20191;-80
2022/03/30 03:59:12;;;;;;;;;;;;;;;-0.86;71.10;99153.77;2108550;83;20175;-79
2022/03/30 04:02:12;;;;;;;;;;;;;;;-1.13;71.28;99161.41;2108586;83;20164;-80
2022/03/30 04:05:14;;;;;;;;;;;;;;;-1.26;71.49;99158.92;2112801;83;20449;-80
2022/03/30 04:08:15;;;;;;;;;;;;;;;-1.24;71.77;99157.48;2117276;83;20144;-79
2022/03/30 04:11:16;;;;;;;;;;;;;;;-1.20;71.78;99148.04;2112926;83;20181;-79
2022/03/30 04:14:17;;;;;;;;;;;;;;;-1.21;71.81;99154.65;2108456;83;20437;-82
2022/03/30 04:17:19;;;;;;;;;;;;;;;-1.24;71.98;99156.19;2108464;83;20483;-80
2022/03/30 04:20:20;;;;;;;;;;;;;;;-1.19;71.83;99147.56;2113696;83;20155;-81
2022/03/30 04:23:22;;;;;;;;;;;;;;;-1.15;71.67;99154.21;2106598;83;20301;-81
2022/03/30 04:26:23;;;;;;;;;;;;;;;-1.12;71.87;99153.98;2112117;83;20151;-81
2022/03/30 04:29:24;;;;;;;;;;;;;;;-1.14;71.79;99150.66;2110335;83;20130;-79
2022/03/30 04:32:26;;;;;;;;;;;;;;;-1.15;71.95;99155.52;2113971;83;20158;-80
2022/03/30 04:35:27;;;;;;;;;;;;;;;-1.13;71.83;99157.51;2110065;83;20466;-81
2022/03/30 04:38:28;;;;;;;;;;;;;;;-1.14;71.57;99155.86;2110452;83;21060;-82
2022/03/30 04:41:29;;;;;;;;;;;;;;;-1.13;71.67;99158.81;2115716;83;20169;-81
2022/03/30 04:44:30;;;;;;;;;;;;;;;-1.08;71.68;99161.08;2112369;83;20125;-80
2022/03/30 04:47:32;;;;;;;;;;;;;;;-1.06;71.42;99165.23;2113223;83;20174;-80
2022/03/30 04:50:33;;;;;;;;;;;;;;;-1.01;71.02;99163.59;2111240;83;20488;-80
2022/03/30 04:53:34;;;;;;;;;;;;;;;-0.98;70.84;99165.48;2111452;83;20127;-77
2022/03/30 04:56:35;;;;;;;;;;;;;;;-0.98;71.33;99165.48;2112348;83;20155;-79
2022/03/30 04:59:36;;;;;;;;;;;;;;;-0.98;71.47;99173.29;2107735;83;20156;-82
2022/03/30 05:02:38;;;;;;;;;;;;;;;-0.99;71.40;99168.19;2108331;83;20177;-78
2022/03/30 05:05:39;;;;;;;;;;;;;;;-0.96;71.44;99166.20;2104925;83;20163;-78
2022/03/30 05:08:40;;;;;;;;;;;;;;;-0.84;71.65;99163.60;2110169;83;20185;-80
2022/03/30 05:11:41;;;;;;;;;;;;;;;-0.78;71.60;99161.83;2110276;83;20185;-79
2022/03/30 05:14:42;;;;;;;;;;;;;;;-0.83;71.43;99169.16;2113476;83;20260;-77
2022/03/30 05:17:45;;;;;;;;;;;;;;;-0.81;71.65;99175.09;2111406;83;20197;-79
2022/03/30 05:20:53;;;;;;;;;;;;;;;-0.75;71.79;99166.80;2112189;83;20129;-78
2022/03/30 05:23:54;;;;;;;;;;;;;;;-0.67;71.90;99168.82;2107022;83;20145;-78
2022/03/30 05:26:55;;;;;;;;;;;;;;;-0.61;71.87;99173.55;2111131;83;20174;-79
2022/03/30 05:29:56;;;;;;;;;;;;;;;-0.55;71.94;99167.38;2111528;83;20166;-77
2022/03/30 05:32:57;;;;;;;;;;;;;;;-0.43;71.96;99168.67;2109807;83;20180;-78
2022/03/30 05:35:58;;;;;;;;;;;;;;;-0.21;72.09;99168.64;2108206;83;20264;-77
2022/03/30 05:38:59;;;;;;;;;;;;;;;0.03;72.10;99172.85;2104746;83;20179;-78
2022/03/30 05:42:00;;;;;;;;;;;;;;;0.21;72.01;99173.52;2111718;83;20459;-78
2022/03/30 05:45:02;;;;;;;;;;;;;;;0.39;71.98;99169.87;2110312;83;20133;-78
2022/03/30 05:48:03;;;;;;;;;;;;;;;0.52;72.02;99167.59;2110182;83;20140;-79
2022/03/30 05:51:05;;;;;;;;;;;;;;;0.74;72.13;99174.00;2111515;83;20182;-79
2022/03/30 05:54:06;;;;;;;;;;;;;;;0.93;72.06;99176.38;2112896;83;20172;-79
2022/03/30 05:57:08;;;;;;;;;;;;;;;1.08;72.01;99176.41;2110677;83;20166;-78
2022/03/30 06:00:10;;;;;;;;;;;;;;;1.23;72.00;99175.10;2108911;83;20427;-77
2022/03/30 06:03:17;;;;;;;;;;;;;;;1.39;72.02;99174.63;2110613;83;20470;-80
2022/03/30 06:06:18;;;;;;;;;;;;;;;1.64;72.16;99177.28;2106079;83;20167;-80
2022/03/30 06:09:19;;;;;;;;;;;;;;;1.85;72.17;99173.27;2109504;83;20191;-79
2022/03/30 06:12:23;;;;;;;;;;;;;;;2.10;72.06;99177.17;2112877;83;20167;-77
2022/03/30 06:15:24;;;;;;;;;;;;;;;2.22;71.88;99173.48;2108633;83;20135;-78
2022/03/30 06:18:25;;;;;;;;;;;;;;;2.32;71.67;99179.20;2104449;83;20180;-81
2022/03/30 06:21:26;;;;;;;;;;;;;;;2.40;71.75;99178.86;2102398;83;20548;-78
2022/03/30 06:24:27;;;;;;;;;;;;;;;2.56;71.77;99174.39;2112943;83;20169;-79
2022/03/30 06:27:28;;;;;;;;;;;;;;;2.84;71.92;99172.67;2093845;83;20476;-78
2022/03/30 06:30:30;;;;;;;;;;;;;;;3.19;71.87;99163.37;2106710;83;20132;-78
2022/03/30 06:33:31;;;;;;;;;;;;;;;3.45;71.54;99163.55;2112056;83;20163;-80
2022/03/30 06:36:33;;;;;;;;;;;;;;;3.71;71.46;99168.13;2105848;83;21150;-78
2022/03/30 06:39:35;;;;;;;;;;;;;;;4.01;71.42;99162.56;2111651;83;20184;-79
2022/03/30 06:42:37;;;;;;;;;;;;;;;4.24;71.00;99166.89;2103338;83;20140;-79
2022/03/30 06:45:38;;;;;;;;;;;;;;;4.46;70.94;99170.88;2105405;83;20151;-79
2022/03/30 06:48:39;;;;;;;;;;;;;;;4.67;70.73;99162.70;2105585;83;20172;-80
2022/03/30 06:51:40;;;;;;;;;;;;;;;5.02;70.67;99158.84;2106352;83;20526;-79
2022/03/30 06:54:41;;;;;;;;;;;;;;;5.48;70.37;99160.73;2105920;83;20183;-78
2022/03/30 06:57:43;;;;;;;;;;;;;;;6.03;70.28;99159.00;2113948;83;20463;-80
2022/03/30 07:00:44;;;;;;;;;;;;;;;6.55;69.65;99163.18;2104105;83;20186;-79
2022/03/30 07:03:45;;;;;;;;;;;;;;;7.09;69.30;99159.02;2108020;83;20159;-79
2022/03/30 07:10:15;;;;;;;;;;;;;;;7.96;67.76;99157.72;2074611;84;20173;-81
2022/03/30 07:13:16;;;;;;;;;;;;;;;8.47;67.16;99165.20;2077639;84;20174;-80
2022/03/30 07:16:17;;;;;;;;;;;;;;;8.83;66.81;99160.63;2077084;84;20139;-80
2022/03/30 07:19:18;;;;;;;;;;;;;;;9.28;66.22;99160.20;2081755;84;20451;-79
2022/03/30 07:22:19;;;;;;;;;;;;;;;9.67;65.33;99157.78;2076338;84;20188;-82
2022/03/30 07:25:21;;;;;;;;;;;;;;;10.06;64.83;99156.13;2077855;84;20178;-81
2022/03/30 07:28:22;;;;;;;;;;;;;;;10.52;63.88;99158.45;2079664;84;20163;-80
2022/03/30 07:31:24;;;;;;;;;;;;;;;10.77;63.19;99150.92;2077234;84;20512;-79
2022/03/30 07:34:24;;;;;;;;;;;;;;;11.11;62.82;99160.78;2080663;84;20158;-80
2022/03/30 07:37:25;;;;;;;;;;;;;;;11.49;62.22;99152.94;2080317;84;20157;-82
2022/03/30 07:40:29;;;;;;;;;;;;;;;11.60;60.43;99153.71;2079823;84;20163;-80
2022/03/30 07:43:30;;;;;;;;;;;;;;;11.87;60.64;99160.83;2077016;84;20158;-81
2022/03/30 07:46:31;;;;;;;;;;;;;;;12.06;60.02;99163.25;2078972;84;20131;-80
2022/03/30 07:49:34;;;;;;;;;;;;;;;12.38;59.23;99164.87;2079742;84;20468;-78
2022/03/30 07:52:35;;;;;;;;;;;;;;;12.78;58.77;99164.91;2081955;84;20154;-79
2022/03/30 07:55:39;;;;;;;;;;;;;;;12.94;57.10;99161.04;2077847;84;20186;-80
2022/03/30 07:58:39;;;;;;;;;;;;;;;12.86;56.21;99155.40;2076955;84;20171;-77
2022/03/30 08:01:40;;;;;;;;;;;;;;;12.86;54.67;99159.39;2078165;84;20546;-79
2022/03/30 08:04:42;;;;;;;;;;;;;;;12.37;52.17;99159.77;2081221;84;20142;-81
2022/03/30 08:07:44;;;;;;;;;;;;;;;12.10;53.36;99155.69;2106159;83;20161;-80
2022/03/30 08:10:45;;;;;;;;;;;;;;;12.02;53.30;99156.71;2105699;83;20163;-78
2022/03/30 08:13:46;;;;;;;;;;;;;;;12.05;53.25;99139.52;2115073;83;20199;-81
2022/03/30 08:16:47;;;;;;;;;;;;;;;11.86;52.80;99147.75;2110865;83;20510;-79
2022/03/30 08:19:48;;;;;;;;;;;;;;;11.62;52.55;99143.72;2089795;84;20196;-81
2022/03/30 08:22:49;;;;;;;;;;;;;;;11.85;52.72;99143.40;2089138;83;20178;-79
2022/03/30 08:25:50;;;;;;;;;;;;;;;12.15;50.96;99140.48;2097891;84;20179;-80
2022/03/30 08:28:51;;;;;;;;;;;;;;;11.97;51.70;99135.22;2092219;84;20131;-81
2022/03/30 08:31:53;;;;;;;;;;;;;;;12.04;51.09;99144.53;2094363;84;20141;-78
2022/03/30 08:34:55;;;;;;;;;;;;;;;11.93;50.27;99143.27;2126498;83;20547;-81
2022/03/30 08:37:56;;;;;;;;;;;;;;;11.64;49.15;99135.86;2091369;84;20162;-81
2022/03/30 08:40:58;;;;;;;;;;;;;;;11.55;49.93;99136.23;2093743;84;20478;-81
2022/03/30 08:44:00;;;;;;;;;;;;;;;11.82;50.30;99131.84;2095813;84;20424;-80
2022/03/30 08:47:01;;;;;;;;;;;;;;;11.84;49.85;99129.81;2090061;84;20163;-80
2022/03/30 08:50:04;;;;;;;;;;;;;;;12.03;49.52;99124.29;2087369;84;20187;-80
2022/03/30 08:53:06;;;;;;;;;;;;;;;12.34;49.35;99130.39;2095859;83;20515;-80
2022/03/30 08:56:07;;;;;;;;;;;;;;;12.32;48.38;99125.27;2090702;84;20140;-80
2022/03/30 08:59:14;;;;;;;;;;;;;;;12.40;48.38;99120.27;2087707;84;20144;-78
2022/03/30 09:02:14;;;;;;;;;;;;;;;12.64;48.63;99116.21;2086978;83;20183;-80
2022/03/30 09:05:19;;;;;;;;;;;;;;;13.12;48.57;99120.45;2091182;84;20160;-81
2022/03/30 09:08:25;;;;;;;;;;;;;;;13.50;47.37;99115.28;2094313;84;20143;-79
2022/03/30 09:11:26;;;;;;;;;;;;;;;13.45;47.37;99109.23;2100435;84;20154;-77
2022/03/30 09:14:30;;;;;;;;;;;;;;;13.43;46.58;99114.47;2091666;84;20136;-78
2022/03/30 09:17:39;;;;;;;;;;;;;;;13.24;46.12;99109.48;2095431;84;20174;-77
2022/03/30 09:20:42;;;;;;;;;;;;;;;13.14;46.34;99105.09;2096123;84;20172;-80
2022/03/30 09:23:49;;;;;;;;;;;;;;;13.17;46.12;99106.00;2093258;84;20410;-80
2022/03/30 09:26:51;;;;;;;;;;;;;;;13.42;46.21;99099.52;2093246;84;20603;-79
2022/03/30 09:29:52;;;;;;;;;;;;;;;13.63;45.75;99098.44;2097465;84;20174;-80
2022/03/30 09:32:55;;;;;;;;;;;;;;;13.67;45.65;99092.97;2090800;84;20158;-79
2022/03/30 09:35:57;;;;;;;;;;;;;;;13.76;44.47;99094.87;2113416;83;20174;-78
2022/03/30 09:38:58;;;;;;;;;;;;;;;13.75;44.39;99092.73;2114637;83;20129;-81
2022/03/30 09:42:01;;;;;;;;;;;;;;;13.71;43.92;99084.84;2093021;83;20657;-79
2022/03/30 09:45:02;;;;;;;;;;;;;;;13.87;44.67;99083.02;2092922;84;20147;-79
2022/03/30 09:48:13;;;;;;;;;;;;;;;14.04;44.05;99078.01;2090404;84;20122;-79
2022/03/30 09:51:14;;;;;;;;;;;;;;;14.00;43.64;99076.00;2086945;84;20438;-80
2022/03/30 09:54:16;;;;;;;;;;;;;;;13.95;44.04;99079.82;2108840;83;20484;-80
2022/03/30 09:57:20;;;;;;;;;;;;;;;14.05;43.96;99072.15;2107964;83;20165;-79
2022/03/30 10:00:21;;;;;;;;;;;;;;;14.29;43.90;99075.38;2110993;83;20123;-78
2022/03/30 10:03:23;;;;;;;;;;;;;;;14.55;43.48;99062.38;2107308;83;20166;-79
2022/03/30 10:06:27;;;;;;;;;;;;;;;14.78;43.36;99066.29;2110706;83;20156;-80
2022/03/30 10:09:29;;;;;;;;;;;;;;;14.91;42.80;99058.16;2106030;83;20146;-78
2022/03/30 10:12:31;;;;;;;;;;;;;;;15.00;42.71;99059.50;2111976;83;20129;-80
2022/03/30 10:15:32;;;;;;;;;;;;;;;15.06;42.29;99058.32;2111611;83;20325;-80
2022/03/30 10:18:34;;;;;;;;;;;;;;;15.12;42.20;99047.59;2108968;83;20139;-80
2022/03/30 10:21:51;;;;;;;;;;;;;;;15.15;42.00;99051.67;2112155;83;20147;-80
2022/03/30 10:25:05;;;;;;;;;;;;;;;15.09;42.11;99043.19;2112462;83;20162;-78
2022/03/30 10:28:19;;;;;;;;;;;;;;;15.15;41.73;99042.32;2111104;83;20141;-80
2022/03/30 10:31:22;;;;;;;;;;;;;;;15.30;41.78;99043.27;2107677;83;20163;-79
2022/03/30 10:34:25;;;;;;;;;;;;;;;15.30;41.20;99032.58;2109584;83;20457;-78
2022/03/30 10:37:36;;;;;;;;;;;;;;;15.16;39.91;99034.06;2109543;83;20183;-79
2022/03/30 10:40:38;;;;;;;;;;;;;;;14.64;40.43;99035.41;2109603;83;20166;-79
2022/03/30 10:43:39;;;;;;;;;;;;;;;14.07;40.25;99030.09;2109787;83;20181;-79
2022/03/30 10:46:40;;;;;;;;;;;;;;;13.37;40.43;99030.05;2110159;83;20453;-81
2022/03/30 10:49:47;;;;;;;;;;;;;;;13.06;41.38;99022.23;2108203;83;20179;-80
2022/03/30 10:52:49;;;;;;;;;;;;;;;13.36;41.56;99011.92;2108856;83;20127;-79
2022/03/30 10:55:49;;;;;;;;;;;;;;;13.73;41.46;99006.81;2112737;83;20128;-78
2022/03/30 10:59:00;;;;;;;;;;;;;;;13.97;41.11;99004.43;2111339;83;20615;-80
2022/03/30 11:02:14;;;;;;;;;;;;;;;13.97;41.18;99005.77;2107761;83;20130;-81
2022/03/30 11:05:17;;;;;;;;;;;;;;;14.28;41.12;99005.73;2109630;83;20180;-80
2022/03/30 11:08:34;;;;;;;;;;;;;;;14.45;40.61;99006.52;2125148;82;20621;-79
2022/03/30 11:11:39;;;;;;;;;;;;;;;14.43;40.62;99004.05;2128687;83;20152;-79
2022/03/30 11:14:46;;;;;;;;;;;;;;;14.62;40.24;99002.28;2124523;82;20126;-79
2022/03/30 11:17:47;;;;;;;;;;;;;;;14.75;40.27;98995.48;2125257;83;20447;-80
2022/03/30 11:21:09;;;;;;;;;;;;;;;14.95;40.09;98993.94;2125303;82;20161;-81
2022/03/30 11:24:11;;;;;;;;;;;;;;;15.12;40.19;98993.31;2123535;82;20127;-81
2022/03/30 11:27:17;;;;;;;;;;;;;;;15.20;39.62;98986.33;2120950;82;20136;-79
2022/03/30 11:30:19;;;;;;;;;;;;;;;15.02;39.12;98981.30;2128808;82;20144;-80
2022/03/30 11:33:22;;;;;;;;;;;;;;;14.59;38.78;98988.04;2127285;83;20620;-81
2022/03/30 11:36:24;;;;;;;;;;;;;;;14.15;39.13;98975.14;2120600;83;20164;-79
2022/03/30 11:39:34;;;;;;;;;;;;;;;14.05;39.08;98966.80;2128198;82;20136;-81
2022/03/30 11:42:41;;;;;;;;;;;;;;;13.93;39.11;98969.36;2123463;83;20161;-80
2022/03/30 11:45:42;;;;;;;;;;;;;;;14.01;39.39;98970.42;2126788;82;20437;-80
2022/03/30 11:48:44;;;;;;;;;;;;;;;14.11;38.47;98961.95;2124246;83;20150;-79
2022/03/30 11:51:45;;;;;;;;;;;;;;;14.05;39.22;98968.13;2126732;83;20206;-78
2022/03/30 11:54:50;;;;;;;;;;;;;;;13.97;38.89;98964.43;2124007;83;20148;-79
2022/03/30 11:57:52;;;;;;;;;;;;;;;13.84;39.14;98959.47;2123073;82;20134;-80
2022/03/30 12:00:56;;;;;;;;;;;;;;;13.68;39.17;98958.66;2125092;83;20118;-80
2022/03/30 12:03:57;;;;;;;;;;;;;;;13.60;39.26;98956.24;2127486;82;20159;-81
2022/03/30 12:06:58;;;;;;;;;;;;;;;13.50;39.42;98948.73;2122781;83;20170;-82
2022/03/30 12:09:59;;;;;;;;;;;;;;;13.52;39.01;98942.68;2127281;83;20105;-80
2022/03/30 12:13:01;;;;;;;;;;;;;;;13.40;38.65;98930.55;2125756;83;20147;-79
2022/03/30 12:16:08;;;;;;;;;;;;;;;13.08;38.89;98935.50;2124789;83;20189;-79
2022/03/30 12:19:13;;;;;;;;;;;;;;;12.95;39.09;98932.36;2129431;83;20466;-79
2022/03/30 12:22:16;;;;;;;;;;;;;;;12.68;39.36;98931.65;2124761;83;20142;-80
2022/03/30 12:25:18;;;;;;;;;;;;;;;12.58;39.10;98934.73;2124559;83;20463;-79
2022/03/30 12:28:32;;;;;;;;;;;;;;;12.54;39.49;98925.54;2124848;83;20159;-80
2022/03/30 12:31:35;;;;;;;;;;;;;;;12.44;39.70;98927.28;2126626;82;20146;-79
2022/03/30 12:34:36;;;;;;;;;;;;;;;12.41;39.78;98924.23;2127491;83;20156;-80
2022/03/30 12:37:38;;;;;;;;;;;;;;;12.43;40.06;98918.20;2123876;82;20124;-77
2022/03/30 12:40:41;;;;;;;;;;;;;;;12.48;40.19;98911.23;2126902;83;20643;-78
2022/03/30 12:43:44;;;;;;;;;;;;;;;12.49;40.25;98908.86;2122552;82;20123;-78
2022/03/30 12:46:46;;;;;;;;;;;;;;;12.44;39.96;98907.33;2128651;83;20733;-81
2022/03/30 12:49:51;;;;;;;;;;;;;;;12.42;40.23;98903.27;2126983;83;20135;-81
2022/03/30 12:52:54;;;;;;;;;;;;;;;12.47;40.02;98906.95;2124921;83;20142;-80
2022/03/30 12:55:55;;;;;;;;;;;;;;;12.27;39.76;98901.63;2131134;82;20503;-80
2022/03/30 12:59:00;;;;;;;;;;;;;;;11.95;39.78;98903.31;2123313;82;20200;-78
2022/03/30 13:02:23;;;;;;;;;;;;;;;11.84;40.04;98902.05;2120986;82;20486;-79
2022/03/30 13:05:25;;;;;;;;;;;;;;;11.71;40.29;98894.06;2125184;83;20133;-80
2022/03/30 13:08:26;;;;;;;;;;;;;;;11.66;40.41;98892.56;2113433;83;20503;-79
2022/03/30 13:11:28;;;;;;;;;;;;;;;11.66;40.49;98887.25;2113226;83;20130;-79
2022/03/30 13:14:29;;;;;;;;;;;;;;;11.70;40.64;98885.80;2107498;83;20385;-80
2022/03/30 13:17:31;;;;;;;;;;;;;;;11.74;40.65;98881.73;2112766;83;20176;-80
2022/03/30 13:20:35;;;;;;;;;;;;;;;11.72;40.83;98876.31;2111262;83;20166;-81
2022/03/30 13:23:43;;;;;;;;;;;;;;;11.80;40.77;98870.28;2107944;83;20119;-81
2022/03/30 13:26:46;;;;;;;;;;;;;;;11.70;40.88;98868.53;2110692;83;20160;-78
2022/03/30 13:29:48;;;;;;;;;;;;;;;11.79;41.12;98869.14;2109111;83;20130;-79
2022/03/30 13:32:49;;;;;;;;;;;;;;;11.77;41.33;98865.37;2115129;83;20140;-80
2022/03/30 13:35:53;;;;;;;;;;;;;;;11.79;41.74;98865.16;2109729;83;20131;-81
2022/03/30 13:38:57;;;;;;;;;;;;;;;11.73;41.71;98864.65;2110747;83;20129;-81
2022/03/30 13:41:59;;;;;;;;;;;;;;;11.66;41.54;98862.00;2113110;83;20214;-80
2022/03/30 13:45:00;;;;;;;;;;;;;;;11.61;41.58;98859.95;2110710;83;20184;-79
2022/03/30 13:48:02;;;;;;;;;;;;;;;11.52;41.59;98860.36;2112029;83;20193;-81
2022/03/30 13:51:04;;;;;;;;;;;;;;;11.50;41.86;98860.55;2109869;83;20556;-79
2022/03/30 13:54:06;;;;;;;;;;;;;;;11.42;41.98;98862.08;2099407;83;20145;-80
2022/03/30 13:57:07;;;;;;;;;;;;;;;11.22;42.25;98862.05;2110455;83;20161;-80
2022/03/30 14:00:12;;;;;;;;;;;;;;;11.08;42.66;98855.89;2111919;83;20129;-82
2022/03/30 14:03:14;;;;;;;;;;;;;;;10.92;42.94;98857.58;2107238;83;20164;-82
2022/03/30 14:06:15;;;;;;;;;;;;;;;10.77;43.24;98856.41;2110103;83;20148;-81
2022/03/30 14:09:16;;;;;;;;;;;;;;;10.65;43.61;98844.23;2107333;83;20218;-82
2022/03/30 14:12:17;;;;;;;;;;;;;;;10.53;43.94;98848.44;2109712;83;20195;-84
2022/03/30 14:15:19;;;;;;;;;;;;;;;10.41;44.19;98845.53;2113288;83;20528;-81
2022/03/30 14:18:24;;;;;;;;;;;;;;;10.31;44.80;98841.93;2104957;83;20151;-78
2022/03/30 14:21:25;;;;;;;;;;;;;;;10.31;45.20;98844.58;2108427;83;20164;-79
2022/03/30 14:24:27;;;;;;;;;;;;;;;10.28;46.89;98846.81;2102627;83;20296;-82
2022/03/30 14:27:29;;;;;;;;;;;;;;;9.97;47.92;98848.53;2111562;83;20166;-83
2022/03/30 14:30:32;;;;;;;;;;;;;;;9.78;48.37;98853.48;2106860;83;20545;-82
2022/03/30 14:33:34;;;;;;;;;;;;;;;9.56;48.48;98855.34;2103548;83;20186;-81
2022/03/30 14:36:38;;;;;;;;;;;;;;;9.33;49.43;98846.79;2101563;83;20170;-81
2022/03/30 14:39:44;;;;;;;;;;;;;;;9.22;49.54;98842.81;2084489;83;20194;-79
2022/03/30 14:42:47;;;;;;;;;;;;;;;9.17;50.22;98847.84;2074652;83;20207;-81
2022/03/30 14:45:52;;;;;;;;;;;;;;;9.14;50.18;98845.07;2102245;83;20170;-79
2022/03/30 14:48:55;;;;;;;;;;;;;;;9.13;50.76;98838.16;2100474;83;20161;-82
2022/03/30 14:52:04;;;;;;;;;;;;;;;9.14;50.87;98837.64;2128249;82;20117;-80
2022/03/30 14:55:16;;;;;;;;;;;;;;;;;;;;;
2022/03/30 14:58:13;;;;;;;;;;;;;;;9.08;50.63;98837.89;2083024;84;20162;-80
2022/03/30 15:01:14;;;;;;;;;;;;;;;9.02;50.56;98833.87;2091993;84;20453;-81
2022/03/30 15:04:20;;;;;;;;;;;;;;;9.02;51.16;98829.39;2091486;84;20178;-80
2022/03/30 15:07:23;;;;;;;;;;;;;;;9.01;50.89;98821.63;2089472;84;20185;-82
2022/03/30 15:10:24;;;;;;;;;;;;;;;8.94;50.84;98822.89;2100113;84;20147;-83
2022/03/30 15:13:25;;;;;;;;;;;;;;;8.93;50.83;98819.43;2095319;83;20151;-83
2022/03/30 15:16:26;;;;;;;;;;;;;;;8.98;50.89;98819.69;2099685;84;20116;-82
2022/03/30 15:19:27;;;;;;;;;;;;;;;9.08;51.16;98814.59;2097751;84;20146;-79
2022/03/30 15:22:28;;;;;;;;;;;;;;;9.09;51.11;98813.56;2098654;84;20139;-81
2022/03/30 15:25:37;;;;;;;;;;;;;;;9.09;51.13;98816.21;2099781;84;20148;-81
2022/03/30 15:28:43;;;;;;;;;;;;;;;9.06;51.09;98812.63;2098731;83;20167;-82
2022/03/30 15:31:44;;;;;;;;;;;;;;;8.99;51.48;98804.63;2099426;84;20148;-81
2022/03/30 15:34:46;;;;;;;;;;;;;;;8.90;51.66;98810.55;2100801;83;20529;-82
2022/03/30 15:37:52;;;;;;;;;;;;;;;8.85;51.54;98806.32;2098958;84;20173;-82
2022/03/30 15:40:51;;;;;;;;;;;;;;;8.83;51.77;98806.19;2095121;84;20445;-80
2022/03/30 15:44:00;;;;;;;;;;;;;;;8.80;52.90;98809.21;2100320;84;20210;-80
2022/03/30 15:47:08;;;;;;;;;;;;;;;8.65;54.00;98805.30;2099076;83;20493;-80
2022/03/30 15:50:24;;;;;;;;;;;;;;;8.49;54.50;98805.81;2095753;83;20120;-82
2022/03/30 15:53:31;;;;;;;;;;;;;;;8.39;54.65;98813.23;2091997;84;20147;-80
2022/03/30 15:56:30;;;;;;;;;;;;;;;8.33;55.16;98803.84;2100612;83;20179;-79
2022/03/30 15:59:32;;;;;;;;;;;;;;;8.28;55.45;98807.06;2098735;83;20133;-79
2022/03/30 16:02:33;;;;;;;;;;;;;;;8.17;56.03;98807.52;2097544;84;20127;-80
2022/03/30 16:05:35;;;;;;;;;;;;;;;8.07;56.18;98816.52;2103665;83;20135;-82